Tropical Cyclones
[Index]
Main Index Home Page Stock Weather Photos Extreme Storms Discussion Storm News and Storm Chasing Reports Tropical Cyclones / Hurricanes / Typhoons Weather Data and Links Wild Fires / Bushfires Weather Observation Techniques Weather Picture Catalogue Tornado Pictures and Reports Stock Video Footage and DVDs for sale
Season 1987-1988 Tropical Cyclone 198801 Track Map
Season 1987-1988 Summaries: [BoM-AU] [JTWC-AU] [JTWC-SIO] [JTWC-SPAC] [JTWC-SH]
<<- Previous TC | JTWC 1987-1988 Season | Next TC ->>

click for intensity scale information  Lat/long Grid: Show Hide

 Date Labels: Show Hide

Joint Typhoon Warning Centre Cyclone Data

Name: 198801

31 Oct 1987 06:00 UTC to 09 Nov 1987 18:00 UTC

    date/time    lat    long     hPa   cat  kts
1987-10-31 06    3.8    86.2                  25          
1987-10-31 12    4.0    85.1                  25          
1987-10-31 18    4.3    84.1                  25          
1987-11-01 00    4.9    83.1                  25          
1987-11-01 06    5.3    82.0                  30          
1987-11-01 12    5.4    81.0                  30          
1987-11-01 18    5.6    79.9                  35          
1987-11-02 00    5.7    78.6                  35          
1987-11-02 06    5.9    77.5                  35          
1987-11-02 12    6.1    76.6            1     40          
1987-11-02 18    6.4    75.8            1     45          
1987-11-03 00    6.6    75.1            1     45          
1987-11-03 06    6.9    74.5            1     45          
1987-11-03 12    7.2    73.8            1     45          
1987-11-03 18    7.6    73.4            1     45          
1987-11-04 00    8.0    73.0            1     40          
1987-11-04 06    8.6    72.6            1     40          
1987-11-04 12    9.2    72.4            1     40          
1987-11-04 18   10.0    71.9            1     40          
1987-11-05 00   10.2    71.3            1     45          
1987-11-05 06   10.4    70.7            1     45          
1987-11-05 12   10.6    70.3            1     45          
1987-11-05 18   10.8    69.8            1     45          
1987-11-06 00   11.2    69.3            1     45          
1987-11-06 06   11.4    68.8            1     45          
1987-11-06 12   11.6    68.4            1     45          
1987-11-06 18   11.8    68.0            1     50          
1987-11-07 00   11.9    67.5            2     55          
1987-11-07 06   12.2    67.1            2     55          
1987-11-07 12   12.6    66.5            1     50          
1987-11-07 18   12.8    66.0            1     50          
1987-11-08 00   13.0    65.4            1     50          
1987-11-08 06   12.9    64.6            1     45          
1987-11-08 12   12.8    63.8            1     45          
1987-11-08 18   12.5    63.2                  35          
1987-11-09 00   12.1    62.7            1     40          
1987-11-09 06   11.9    62.3                  35          
1987-11-09 12   11.8    61.8                  35          
1987-11-09 18   11.7    61.3                  35          
Winds are 1-min average.

Tropical cyclone tracks developed by Michael Bath using data from the Joint Typhoon Warning Centre Best Tracks and Google Maps.


[Australian Severe Weather index] [Copyright Notice] [Email Contacts] [Search This Site] [Privacy Policy]
Document: tropical_cyclone_198801.htm Updated: 18 September 2016